Nu Mine, Pennsylvania
Current Conditions -  °F | °C
As of 7:55 PM on Saturday 22 Nov 2014 (Local Time) from KIDI Reporting Station
Overcast Overcast  
Wind Chill: 41°   Ceiling: 7500
Heat Index: 45°   Visibility: 10mi
Dew Point: 32°   Wind: 6mph
Humidity: 61%   Direction: 220°SW
Pressure: 30.16"   Gusts: NA
Location:  40.8°N, 79.27°W
Report Text: KIDI 230055Z AUTO 22005KT 10SM SCT040 BKN075 OVC090 07/M00 A3016 RMK A01
Loading
Personal Weather Stations






























Interactive Weather Map New forecast layout! Learn more

10-Day Weather Forecast

Advertisements
Track Severe Weather on mobile